Terminal Aerodrome Forecast
Issued by NWS Flagstaff, AZ

Home | Current Version | Previous Version | Text Only | Print | Product List | Glossary On
Versions: 1 2 3 4 5 6 7 8 9 10 11 12 13 14 15 16 17 18 19 20 21 22 23 24 25 26 27 28
000
FTUS45 KFGZ 211738
TAFINW
TAF
KINW 211738Z 2118/2218 20017G27KT P6SM BKN060
      TEMPO 2118/2122 -SHRA BKN050
     FM212200 21017G25KT P6SM FEW080
     FM220500 21008KT P6SM FEW110=

USA.gov is the U.S. government's official web portal to all federal, state and local government web resources and services.